Schedule Details


Flight Number: CTN654
Departure: Franjo Tudman (LDZA) at 13:55
Arrival: Kastela (LDSP) at 14:40
Route: NIVES Y137 PALEZ L862 OKLAX

Weather Information
LDZA 081230Z 08006KT 330V140 CAVOK 20/M05 Q1027 NOSIG
LDSP 081230Z 23013KT CAVOK 19/01 Q1024 NOSIG
Schedule Frequency

Route Map